sensor_id;sensor_type;location;lat;lon;timestamp;P1;durP1;ratioP1;P2;durP2;ratioP2
37971;SDS011;23794;48.234;8.344;2023-02-15T00:01:34;6.65;;;4.80;;
37971;SDS011;23794;48.234;8.344;2023-02-15T00:04:01;7.10;;;4.22;;
37971;SDS011;23794;48.234;8.344;2023-02-15T00:06:28;6.95;;;4.22;;
37971;SDS011;23794;48.234;8.344;2023-02-15T00:08:55;8.05;;;3.80;;
37971;SDS011;23794;48.234;8.344;2023-02-15T00:11:22;5.63;;;4.10;;
37971;SDS011;23794;48.234;8.344;2023-02-15T00:14:08;6.78;;;4.80;;
37971;SDS011;23794;48.234;8.344;2023-02-15T00:16:46;5.93;;;4.32;;
37971;SDS011;23794;48.234;8.344;2023-02-15T00:19:14;4.95;;;3.50;;
37971;SDS011;23794;48.234;8.344;2023-02-15T00:21:44;5.65;;;3.65;;
37971;SDS011;23794;48.234;8.344;2023-02-15T00:24:12;7.68;;;3.90;;
37971;SDS011;23794;48.234;8.344;2023-02-15T00:26:40;7.20;;;4.00;;
37971;SDS011;23794;48.234;8.344;2023-02-15T00:29:09;7.28;;;3.97;;
37971;SDS011;23794;48.234;8.344;2023-02-15T00:31:37;5.68;;;3.85;;
37971;SDS011;23794;48.234;8.344;2023-02-15T00:34:05;6.40;;;3.70;;
37971;SDS011;23794;48.234;8.344;2023-02-15T00:36:32;8.15;;;4.07;;
37971;SDS011;23794;48.234;8.344;2023-02-15T00:38:59;5.25;;;3.80;;
37971;SDS011;23794;48.234;8.344;2023-02-15T00:41:25;5.40;;;3.20;;
37971;SDS011;23794;48.234;8.344;2023-02-15T00:43:52;5.93;;;3.58;;
37971;SDS011;23794;48.234;8.344;2023-02-15T00:46:18;5.85;;;3.22;;
37971;SDS011;23794;48.234;8.344;2023-02-15T00:48:45;5.22;;;2.80;;
37971;SDS011;23794;48.234;8.344;2023-02-15T00:51:12;6.47;;;3.22;;
37971;SDS011;23794;48.234;8.344;2023-02-15T00:53:38;6.10;;;3.05;;
37971;SDS011;23794;48.234;8.344;2023-02-15T00:56:06;6.47;;;3.25;;
37971;SDS011;23794;48.234;8.344;2023-02-15T00:58:32;5.45;;;2.65;;
37971;SDS011;23794;48.234;8.344;2023-02-15T01:01:06;4.50;;;2.83;;
37971;SDS011;23794;48.234;8.344;2023-02-15T01:03:35;5.60;;;2.78;;
37971;SDS011;23794;48.234;8.344;2023-02-15T01:06:02;3.38;;;2.30;;
37971;SDS011;23794;48.234;8.344;2023-02-15T01:08:29;4.30;;;2.60;;
37971;SDS011;23794;48.234;8.344;2023-02-15T01:11:02;4.97;;;2.35;;
37971;SDS011;23794;48.234;8.344;2023-02-15T01:13:36;4.60;;;2.50;;
37971;SDS011;23794;48.234;8.344;2023-02-15T01:16:04;4.53;;;2.13;;
37971;SDS011;23794;48.234;8.344;2023-02-15T01:18:31;4.60;;;2.25;;
37971;SDS011;23794;48.234;8.344;2023-02-15T01:20:58;4.70;;;2.55;;
37971;SDS011;23794;48.234;8.344;2023-02-15T01:23:25;4.22;;;2.72;;
37971;SDS011;23794;48.234;8.344;2023-02-15T01:25:52;3.92;;;2.53;;
37971;SDS011;23794;48.234;8.344;2023-02-15T01:28:18;4.07;;;2.97;;
37971;SDS011;23794;48.234;8.344;2023-02-15T01:30:45;4.53;;;2.67;;
37971;SDS011;23794;48.234;8.344;2023-02-15T01:33:18;4.32;;;2.60;;
37971;SDS011;23794;48.234;8.344;2023-02-15T01:35:45;4.47;;;2.45;;
37971;SDS011;23794;48.234;8.344;2023-02-15T01:38:12;6.03;;;2.75;;
37971;SDS011;23794;48.234;8.344;2023-02-15T01:40:39;3.90;;;2.13;;
37971;SDS011;23794;48.234;8.344;2023-02-15T01:43:10;6.38;;;2.03;;
37971;SDS011;23794;48.234;8.344;2023-02-15T01:45:37;3.50;;;1.77;;
37971;SDS011;23794;48.234;8.344;2023-02-15T01:48:06;3.80;;;1.85;;
37971;SDS011;23794;48.234;8.344;2023-02-15T01:50:54;2.75;;;1.65;;
37971;SDS011;23794;48.234;8.344;2023-02-15T01:53:27;3.77;;;2.10;;
37971;SDS011;23794;48.234;8.344;2023-02-15T01:55:57;4.70;;;2.38;;
37971;SDS011;23794;48.234;8.344;2023-02-15T01:58:28;3.05;;;1.98;;
37971;SDS011;23794;48.234;8.344;2023-02-15T02:00:56;3.95;;;1.95;;
37971;SDS011;23794;48.234;8.344;2023-02-15T02:06:07;4.25;;;1.73;;
37971;SDS011;23794;48.234;8.344;2023-02-15T02:08:34;4.38;;;1.83;;
37971;SDS011;23794;48.234;8.344;2023-02-15T02:11:01;3.40;;;2.00;;
37971;SDS011;23794;48.234;8.344;2023-02-15T02:13:27;2.83;;;1.50;;
37971;SDS011;23794;48.234;8.344;2023-02-15T02:16:00;1.80;;;1.27;;
37971;SDS011;23794;48.234;8.344;2023-02-15T02:18:42;3.72;;;1.60;;
37971;SDS011;23794;48.234;8.344;2023-02-15T02:21:28;3.30;;;1.83;;
37971;SDS011;23794;48.234;8.344;2023-02-15T02:29:45;3.33;;;1.80;;
37971;SDS011;23794;48.234;8.344;2023-02-15T02:35:38;3.10;;;2.05;;
37971;SDS011;23794;48.234;8.344;2023-02-15T02:38:33;2.40;;;1.55;;
37971;SDS011;23794;48.234;8.344;2023-02-15T02:41:18;2.47;;;1.55;;
37971;SDS011;23794;48.234;8.344;2023-02-15T02:43:55;3.15;;;1.88;;
37971;SDS011;23794;48.234;8.344;2023-02-15T02:46:41;3.70;;;1.55;;
37971;SDS011;23794;48.234;8.344;2023-02-15T02:49:16;2.10;;;1.13;;
37971;SDS011;23794;48.234;8.344;2023-02-15T02:52:00;2.60;;;1.38;;
37971;SDS011;23794;48.234;8.344;2023-02-15T02:54:28;3.00;;;1.55;;
37971;SDS011;23794;48.234;8.344;2023-02-15T02:56:57;3.05;;;1.40;;
37971;SDS011;23794;48.234;8.344;2023-02-15T02:59:32;2.10;;;1.50;;
37971;SDS011;23794;48.234;8.344;2023-02-15T03:02:11;3.88;;;1.25;;
37971;SDS011;23794;48.234;8.344;2023-02-15T03:04:44;2.47;;;1.40;;
37971;SDS011;23794;48.234;8.344;2023-02-15T03:07:20;3.22;;;1.40;;
37971;SDS011;23794;48.234;8.344;2023-02-15T03:09:53;3.55;;;1.50;;
37971;SDS011;23794;48.234;8.344;2023-02-15T03:12:30;2.40;;;1.48;;
37971;SDS011;23794;48.234;8.344;2023-02-15T03:18:20;2.40;;;1.00;;
37971;SDS011;23794;48.234;8.344;2023-02-15T03:20:51;3.45;;;1.08;;
37971;SDS011;23794;48.234;8.344;2023-02-15T03:23:20;2.42;;;1.13;;
37971;SDS011;23794;48.234;8.344;2023-02-15T03:25:52;1.63;;;1.17;;
37971;SDS011;23794;48.234;8.344;2023-02-15T03:28:29;2.72;;;1.75;;
37971;SDS011;23794;48.234;8.344;2023-02-15T03:31:00;3.58;;;1.35;;
37971;SDS011;23794;48.234;8.344;2023-02-15T03:33:30;2.28;;;1.02;;
37971;SDS011;23794;48.234;8.344;2023-02-15T03:36:04;2.28;;;1.15;;
37971;SDS011;23794;48.234;8.344;2023-02-15T03:41:19;2.10;;;1.33;;
37971;SDS011;23794;48.234;8.344;2023-02-15T03:46:31;2.15;;;1.27;;
37971;SDS011;23794;48.234;8.344;2023-02-15T03:49:08;2.72;;;1.40;;
37971;SDS011;23794;48.234;8.344;2023-02-15T03:51:39;2.10;;;1.30;;
37971;SDS011;23794;48.234;8.344;2023-02-15T03:54:25;1.88;;;1.27;;
37971;SDS011;23794;48.234;8.344;2023-02-15T03:57:19;4.65;;;1.35;;
37971;SDS011;23794;48.234;8.344;2023-02-15T04:00:13;2.10;;;1.02;;
37971;SDS011;23794;48.234;8.344;2023-02-15T04:05:48;1.70;;;1.15;;
37971;SDS011;23794;48.234;8.344;2023-02-15T04:08:15;1.73;;;1.10;;
37971;SDS011;23794;48.234;8.344;2023-02-15T04:10:41;2.83;;;1.30;;
37971;SDS011;23794;48.234;8.344;2023-02-15T04:13:24;1.65;;;1.13;;
37971;SDS011;23794;48.234;8.344;2023-02-15T04:15:57;1.77;;;1.00;;
37971;SDS011;23794;48.234;8.344;2023-02-15T04:18:37;2.35;;;1.60;;
37971;SDS011;23794;48.234;8.344;2023-02-15T04:21:25;2.88;;;1.60;;
37971;SDS011;23794;48.234;8.344;2023-02-15T04:24:11;3.97;;;1.42;;
37971;SDS011;23794;48.234;8.344;2023-02-15T04:26:58;3.28;;;1.92;;
37971;SDS011;23794;48.234;8.344;2023-02-15T04:29:26;2.75;;;1.60;;
37971;SDS011;23794;48.234;8.344;2023-02-15T04:31:53;2.25;;;1.45;;
37971;SDS011;23794;48.234;8.344;2023-02-15T04:34:22;3.05;;;1.27;;
37971;SDS011;23794;48.234;8.344;2023-02-15T04:36:48;2.53;;;1.25;;
37971;SDS011;23794;48.234;8.344;2023-02-15T04:39:16;2.42;;;1.15;;
37971;SDS011;23794;48.234;8.344;2023-02-15T04:41:43;3.38;;;1.67;;
37971;SDS011;23794;48.234;8.344;2023-02-15T04:44:11;1.83;;;1.00;;
37971;SDS011;23794;48.234;8.344;2023-02-15T04:46:37;2.20;;;1.17;;
37971;SDS011;23794;48.234;8.344;2023-02-15T04:49:04;2.00;;;0.95;;
37971;SDS011;23794;48.234;8.344;2023-02-15T04:51:30;2.63;;;1.13;;
37971;SDS011;23794;48.234;8.344;2023-02-15T04:53:57;2.25;;;1.13;;
37971;SDS011;23794;48.234;8.344;2023-02-15T04:56:23;2.42;;;1.27;;
37971;SDS011;23794;48.234;8.344;2023-02-15T04:58:50;1.70;;;1.02;;
37971;SDS011;23794;48.234;8.344;2023-02-15T05:01:16;1.90;;;1.00;;
37971;SDS011;23794;48.234;8.344;2023-02-15T05:03:43;3.13;;;1.20;;
37971;SDS011;23794;48.234;8.344;2023-02-15T05:06:10;2.33;;;1.00;;
37971;SDS011;23794;48.234;8.344;2023-02-15T05:08:36;2.92;;;1.50;;
37971;SDS011;23794;48.234;8.344;2023-02-15T05:11:03;3.28;;;1.15;;
37971;SDS011;23794;48.234;8.344;2023-02-15T05:13:29;2.67;;;1.55;;
37971;SDS011;23794;48.234;8.344;2023-02-15T05:15:56;2.50;;;1.33;;
37971;SDS011;23794;48.234;8.344;2023-02-15T05:18:23;2.08;;;1.40;;
37971;SDS011;23794;48.234;8.344;2023-02-15T05:20:49;2.33;;;1.42;;
37971;SDS011;23794;48.234;8.344;2023-02-15T05:23:16;5.30;;;1.50;;
37971;SDS011;23794;48.234;8.344;2023-02-15T05:25:46;2.25;;;1.30;;
37971;SDS011;23794;48.234;8.344;2023-02-15T05:28:32;3.28;;;1.83;;
37971;SDS011;23794;48.234;8.344;2023-02-15T05:31:12;3.70;;;2.20;;
37971;SDS011;23794;48.234;8.344;2023-02-15T05:36:08;2.88;;;1.70;;
37971;SDS011;23794;48.234;8.344;2023-02-15T05:38:35;4.72;;;1.48;;
37971;SDS011;23794;48.234;8.344;2023-02-15T05:41:04;2.22;;;1.55;;
37971;SDS011;23794;48.234;8.344;2023-02-15T05:43:31;3.42;;;1.77;;
37971;SDS011;23794;48.234;8.344;2023-02-15T05:45:58;3.22;;;1.80;;
37971;SDS011;23794;48.234;8.344;2023-02-15T05:48:26;4.13;;;1.48;;
37971;SDS011;23794;48.234;8.344;2023-02-15T05:51:00;3.05;;;1.58;;
37971;SDS011;23794;48.234;8.344;2023-02-15T05:53:27;2.25;;;1.30;;
37971;SDS011;23794;48.234;8.344;2023-02-15T05:55:55;2.63;;;1.60;;
37971;SDS011;23794;48.234;8.344;2023-02-15T05:58:26;2.03;;;1.20;;
37971;SDS011;23794;48.234;8.344;2023-02-15T06:00:54;3.63;;;1.50;;
37971;SDS011;23794;48.234;8.344;2023-02-15T06:03:21;2.42;;;1.27;;
37971;SDS011;23794;48.234;8.344;2023-02-15T06:05:48;4.18;;;1.30;;
37971;SDS011;23794;48.234;8.344;2023-02-15T06:08:15;2.97;;;1.30;;
37971;SDS011;23794;48.234;8.344;2023-02-15T06:10:42;6.18;;;1.45;;
37971;SDS011;23794;48.234;8.344;2023-02-15T06:13:08;2.13;;;1.05;;
37971;SDS011;23794;48.234;8.344;2023-02-15T06:15:35;2.38;;;1.38;;
37971;SDS011;23794;48.234;8.344;2023-02-15T06:18:02;3.47;;;1.70;;
37971;SDS011;23794;48.234;8.344;2023-02-15T06:20:28;3.28;;;1.33;;
37971;SDS011;23794;48.234;8.344;2023-02-15T06:22:55;2.47;;;1.40;;
37971;SDS011;23794;48.234;8.344;2023-02-15T06:25:21;2.58;;;1.80;;
37971;SDS011;23794;48.234;8.344;2023-02-15T06:27:48;3.50;;;1.58;;
37971;SDS011;23794;48.234;8.344;2023-02-15T06:30:15;2.63;;;1.85;;
37971;SDS011;23794;48.234;8.344;2023-02-15T06:32:42;3.25;;;1.70;;
37971;SDS011;23794;48.234;8.344;2023-02-15T06:35:09;1.73;;;1.27;;
37971;SDS011;23794;48.234;8.344;2023-02-15T06:37:37;3.13;;;1.30;;
37971;SDS011;23794;48.234;8.344;2023-02-15T06:40:03;1.95;;;1.38;;
37971;SDS011;23794;48.234;8.344;2023-02-15T06:42:30;2.88;;;1.38;;
37971;SDS011;23794;48.234;8.344;2023-02-15T06:44:57;2.97;;;1.80;;
37971;SDS011;23794;48.234;8.344;2023-02-15T06:47:25;3.08;;;1.67;;
37971;SDS011;23794;48.234;8.344;2023-02-15T06:49:51;2.78;;;1.70;;
37971;SDS011;23794;48.234;8.344;2023-02-15T06:52:18;2.95;;;1.65;;
37971;SDS011;23794;48.234;8.344;2023-02-15T06:54:44;3.70;;;3.10;;
37971;SDS011;23794;48.234;8.344;2023-02-15T06:57:11;1.85;;;1.45;;
37971;SDS011;23794;48.234;8.344;2023-02-15T06:59:38;3.15;;;1.90;;
37971;SDS011;23794;48.234;8.344;2023-02-15T07:02:05;4.05;;;1.35;;
37971;SDS011;23794;48.234;8.344;2023-02-15T07:04:32;3.42;;;1.77;;
37971;SDS011;23794;48.234;8.344;2023-02-15T07:06:58;4.68;;;2.28;;
37971;SDS011;23794;48.234;8.344;2023-02-15T07:09:25;3.85;;;1.67;;
37971;SDS011;23794;48.234;8.344;2023-02-15T07:11:52;2.85;;;1.80;;
37971;SDS011;23794;48.234;8.344;2023-02-15T07:14:37;4.68;;;2.20;;
37971;SDS011;23794;48.234;8.344;2023-02-15T07:17:04;4.38;;;2.53;;
37971;SDS011;23794;48.234;8.344;2023-02-15T07:19:40;5.57;;;3.00;;
37971;SDS011;23794;48.234;8.344;2023-02-15T07:22:06;6.43;;;2.45;;
37971;SDS011;23794;48.234;8.344;2023-02-15T07:24:33;5.53;;;2.67;;
37971;SDS011;23794;48.234;8.344;2023-02-15T07:26:59;5.78;;;3.03;;
37971;SDS011;23794;48.234;8.344;2023-02-15T07:29:26;4.97;;;2.45;;
37971;SDS011;23794;48.234;8.344;2023-02-15T07:31:52;5.07;;;3.15;;
37971;SDS011;23794;48.234;8.344;2023-02-15T07:34:19;5.57;;;2.95;;
37971;SDS011;23794;48.234;8.344;2023-02-15T07:36:46;4.70;;;2.40;;
37971;SDS011;23794;48.234;8.344;2023-02-15T07:39:13;5.95;;;3.08;;
37971;SDS011;23794;48.234;8.344;2023-02-15T07:41:42;5.00;;;3.03;;
37971;SDS011;23794;48.234;8.344;2023-02-15T07:44:11;4.35;;;2.63;;
37971;SDS011;23794;48.234;8.344;2023-02-15T07:46:42;4.82;;;2.75;;
37971;SDS011;23794;48.234;8.344;2023-02-15T07:49:08;3.28;;;2.22;;
37971;SDS011;23794;48.234;8.344;2023-02-15T07:51:35;5.43;;;2.92;;
37971;SDS011;23794;48.234;8.344;2023-02-15T07:54:02;8.50;;;3.40;;
37971;SDS011;23794;48.234;8.344;2023-02-15T07:56:28;5.28;;;3.35;;
37971;SDS011;23794;48.234;8.344;2023-02-15T07:58:57;6.13;;;4.03;;
37971;SDS011;23794;48.234;8.344;2023-02-15T08:01:26;6.55;;;4.40;;
37971;SDS011;23794;48.234;8.344;2023-02-15T08:03:57;9.10;;;5.10;;
37971;SDS011;23794;48.234;8.344;2023-02-15T08:06:25;6.07;;;3.90;;
37971;SDS011;23794;48.234;8.344;2023-02-15T08:08:53;5.78;;;3.50;;
37971;SDS011;23794;48.234;8.344;2023-02-15T08:11:21;5.57;;;3.63;;
37971;SDS011;23794;48.234;8.344;2023-02-15T08:18:51;10.75;;;6.25;;
37971;SDS011;23794;48.234;8.344;2023-02-15T08:21:19;10.55;;;5.85;;
37971;SDS011;23794;48.234;8.344;2023-02-15T08:23:50;8.38;;;4.90;;
37971;SDS011;23794;48.234;8.344;2023-02-15T08:26:17;7.60;;;4.03;;
37971;SDS011;23794;48.234;8.344;2023-02-15T08:28:44;10.57;;;5.75;;
37971;SDS011;23794;48.234;8.344;2023-02-15T08:31:12;10.68;;;5.78;;
37971;SDS011;23794;48.234;8.344;2023-02-15T08:33:40;12.73;;;6.60;;
37971;SDS011;23794;48.234;8.344;2023-02-15T08:36:09;11.13;;;6.50;;
37971;SDS011;23794;48.234;8.344;2023-02-15T08:38:45;10.98;;;6.47;;
37971;SDS011;23794;48.234;8.344;2023-02-15T08:41:12;14.30;;;8.50;;
37971;SDS011;23794;48.234;8.344;2023-02-15T08:43:54;12.48;;;7.72;;
37971;SDS011;23794;48.234;8.344;2023-02-15T08:46:23;11.27;;;6.55;;
37971;SDS011;23794;48.234;8.344;2023-02-15T08:48:51;8.50;;;5.07;;
37971;SDS011;23794;48.234;8.344;2023-02-15T08:51:18;8.35;;;5.45;;
37971;SDS011;23794;48.234;8.344;2023-02-15T08:53:48;6.65;;;3.72;;
37971;SDS011;23794;48.234;8.344;2023-02-15T08:56:16;7.35;;;4.13;;
37971;SDS011;23794;48.234;8.344;2023-02-15T08:58:46;6.47;;;4.30;;
37971;SDS011;23794;48.234;8.344;2023-02-15T09:01:16;8.27;;;4.60;;
37971;SDS011;23794;48.234;8.344;2023-02-15T09:03:46;6.75;;;3.72;;
37971;SDS011;23794;48.234;8.344;2023-02-15T09:06:16;6.32;;;3.42;;
37971;SDS011;23794;48.234;8.344;2023-02-15T09:08:43;6.57;;;3.67;;
37971;SDS011;23794;48.234;8.344;2023-02-15T09:11:11;6.80;;;4.15;;
37971;SDS011;23794;48.234;8.344;2023-02-15T09:13:52;7.88;;;4.72;;
37971;SDS011;23794;48.234;8.344;2023-02-15T09:16:24;7.72;;;4.20;;
37971;SDS011;23794;48.234;8.344;2023-02-15T09:18:53;6.47;;;3.88;;
37971;SDS011;23794;48.234;8.344;2023-02-15T09:21:21;7.00;;;4.57;;
37971;SDS011;23794;48.234;8.344;2023-02-15T09:23:49;9.45;;;5.85;;
37971;SDS011;23794;48.234;8.344;2023-02-15T09:26:21;12.23;;;6.22;;
37971;SDS011;23794;48.234;8.344;2023-02-15T09:28:53;16.52;;;8.23;;
37971;SDS011;23794;48.234;8.344;2023-02-15T09:31:26;15.98;;;8.50;;
37971;SDS011;23794;48.234;8.344;2023-02-15T09:33:54;12.98;;;7.15;;
37971;SDS011;23794;48.234;8.344;2023-02-15T09:38:57;13.68;;;7.65;;
37971;SDS011;23794;48.234;8.344;2023-02-15T10:00:40;4.22;;;2.67;;
37971;SDS011;23794;48.234;8.344;2023-02-15T10:08:41;5.28;;;2.80;;
37971;SDS011;23794;48.234;8.344;2023-02-15T10:14:18;4.13;;;2.55;;
37971;SDS011;23794;48.234;8.344;2023-02-15T10:28:57;5.22;;;2.38;;
37971;SDS011;23794;48.234;8.344;2023-02-15T10:31:37;4.28;;;2.35;;
37971;SDS011;23794;48.234;8.344;2023-02-15T10:39:34;4.32;;;2.17;;
37971;SDS011;23794;48.234;8.344;2023-02-15T10:42:48;5.95;;;2.85;;
37971;SDS011;23794;48.234;8.344;2023-02-15T10:53:18;4.97;;;2.30;;
37971;SDS011;23794;48.234;8.344;2023-02-15T10:56:03;4.55;;;1.90;;
37971;SDS011;23794;48.234;8.344;2023-02-15T11:06:44;6.00;;;2.65;;
37971;SDS011;23794;48.234;8.344;2023-02-15T11:09:24;4.05;;;2.40;;
37971;SDS011;23794;48.234;8.344;2023-02-15T11:12:03;3.85;;;2.30;;
37971;SDS011;23794;48.234;8.344;2023-02-15T11:14:43;4.47;;;2.20;;
37971;SDS011;23794;48.234;8.344;2023-02-15T11:17:12;3.13;;;2.00;;
37971;SDS011;23794;48.234;8.344;2023-02-15T11:25:16;7.45;;;2.47;;
37971;SDS011;23794;48.234;8.344;2023-02-15T11:27:46;6.20;;;3.35;;
37971;SDS011;23794;48.234;8.344;2023-02-15T11:30:17;4.60;;;2.58;;
37971;SDS011;23794;48.234;8.344;2023-02-15T11:32:48;4.75;;;2.47;;
37971;SDS011;23794;48.234;8.344;2023-02-15T11:35:29;4.35;;;2.60;;
37971;SDS011;23794;48.234;8.344;2023-02-15T11:38:06;4.05;;;2.47;;
37971;SDS011;23794;48.234;8.344;2023-02-15T11:40:43;2.97;;;2.10;;
37971;SDS011;23794;48.234;8.344;2023-02-15T11:43:21;4.15;;;2.33;;
37971;SDS011;23794;48.234;8.344;2023-02-15T11:46:14;3.35;;;2.28;;
37971;SDS011;23794;48.234;8.344;2023-02-15T11:48:41;4.97;;;2.58;;
37971;SDS011;23794;48.234;8.344;2023-02-15T11:51:09;3.90;;;2.40;;
37971;SDS011;23794;48.234;8.344;2023-02-15T11:56:12;3.65;;;1.80;;
37971;SDS011;23794;48.234;8.344;2023-02-15T11:59:00;4.57;;;1.92;;
37971;SDS011;23794;48.234;8.344;2023-02-15T12:04:06;6.78;;;2.45;;
37971;SDS011;23794;48.234;8.344;2023-02-15T12:06:35;2.65;;;1.70;;
37971;SDS011;23794;48.234;8.344;2023-02-15T12:11:43;3.33;;;2.17;;
37971;SDS011;23794;48.234;8.344;2023-02-15T12:14:12;3.95;;;2.40;;
37971;SDS011;23794;48.234;8.344;2023-02-15T12:16:46;5.68;;;2.78;;
37971;SDS011;23794;48.234;8.344;2023-02-15T12:19:59;4.68;;;2.08;;
37971;SDS011;23794;48.234;8.344;2023-02-15T12:22:10;2.78;;;1.55;;
37971;SDS011;23794;48.234;8.344;2023-02-15T12:24:46;5.82;;;2.38;;
37971;SDS011;23794;48.234;8.344;2023-02-15T12:27:15;3.65;;;1.58;;
37971;SDS011;23794;48.234;8.344;2023-02-15T12:32:22;1.85;;;1.20;;
37971;SDS011;23794;48.234;8.344;2023-02-15T12:34:51;11.27;;;3.28;;
37971;SDS011;23794;48.234;8.344;2023-02-15T12:37:28;2.88;;;2.22;;
37971;SDS011;23794;48.234;8.344;2023-02-15T12:42:26;2.15;;;1.27;;
37971;SDS011;23794;48.234;8.344;2023-02-15T12:45:02;2.70;;;1.25;;
37971;SDS011;23794;48.234;8.344;2023-02-15T12:47:45;2.65;;;1.30;;
37971;SDS011;23794;48.234;8.344;2023-02-15T12:50:16;5.00;;;1.67;;
37971;SDS011;23794;48.234;8.344;2023-02-15T12:53:02;1.70;;;0.95;;
37971;SDS011;23794;48.234;8.344;2023-02-15T12:55:49;3.10;;;1.27;;
37971;SDS011;23794;48.234;8.344;2023-02-15T12:58:19;2.65;;;1.20;;
37971;SDS011;23794;48.234;8.344;2023-02-15T13:01:02;2.80;;;0.95;;
37971;SDS011;23794;48.234;8.344;2023-02-15T13:03:53;2.33;;;0.98;;
37971;SDS011;23794;48.234;8.344;2023-02-15T13:06:32;3.85;;;1.48;;
37971;SDS011;23794;48.234;8.344;2023-02-15T13:09:14;2.97;;;1.50;;
37971;SDS011;23794;48.234;8.344;2023-02-15T13:11:43;1.92;;;1.20;;
37971;SDS011;23794;48.234;8.344;2023-02-15T13:16:45;2.78;;;1.25;;
37971;SDS011;23794;48.234;8.344;2023-02-15T13:21:49;2.35;;;1.15;;
37971;SDS011;23794;48.234;8.344;2023-02-15T13:24:22;2.75;;;1.60;;
37971;SDS011;23794;48.234;8.344;2023-02-15T13:26:55;1.85;;;1.30;;
37971;SDS011;23794;48.234;8.344;2023-02-15T13:29:40;2.58;;;1.40;;
37971;SDS011;23794;48.234;8.344;2023-02-15T13:32:27;4.05;;;1.50;;
37971;SDS011;23794;48.234;8.344;2023-02-15T13:35:00;3.15;;;1.60;;
37971;SDS011;23794;48.234;8.344;2023-02-15T13:37:37;2.47;;;1.42;;
37971;SDS011;23794;48.234;8.344;2023-02-15T14:00:22;2.20;;;1.35;;
37971;SDS011;23794;48.234;8.344;2023-02-15T14:03:12;2.10;;;1.42;;
37971;SDS011;23794;48.234;8.344;2023-02-15T14:09:19;2.75;;;1.20;;
37971;SDS011;23794;48.234;8.344;2023-02-15T14:14:42;4.70;;;1.13;;
37971;SDS011;23794;48.234;8.344;2023-02-15T14:17:33;5.97;;;1.40;;
37971;SDS011;23794;48.234;8.344;2023-02-15T14:20:20;3.25;;;1.55;;
37971;SDS011;23794;48.234;8.344;2023-02-15T14:25:56;2.38;;;1.60;;
37971;SDS011;23794;48.234;8.344;2023-02-15T14:28:34;2.47;;;1.40;;
37971;SDS011;23794;48.234;8.344;2023-02-15T14:31:10;1.83;;;1.20;;
37971;SDS011;23794;48.234;8.344;2023-02-15T14:34:15;1.92;;;1.17;;
37971;SDS011;23794;48.234;8.344;2023-02-15T14:36:43;4.07;;;1.55;;
37971;SDS011;23794;48.234;8.344;2023-02-15T14:42:48;2.15;;;1.13;;
37971;SDS011;23794;48.234;8.344;2023-02-15T14:50:42;2.22;;;1.40;;
37971;SDS011;23794;48.234;8.344;2023-02-15T15:01:31;3.38;;;1.40;;
37971;SDS011;23794;48.234;8.344;2023-02-15T15:04:04;4.97;;;1.83;;
37971;SDS011;23794;48.234;8.344;2023-02-15T15:06:39;2.92;;;1.58;;
37971;SDS011;23794;48.234;8.344;2023-02-15T15:09:21;2.30;;;1.50;;
37971;SDS011;23794;48.234;8.344;2023-02-15T15:11:53;3.05;;;2.15;;
37971;SDS011;23794;48.234;8.344;2023-02-15T15:17:00;2.55;;;1.67;;
37971;SDS011;23794;48.234;8.344;2023-02-15T15:22:21;4.55;;;1.70;;
37971;SDS011;23794;48.234;8.344;2023-02-15T15:24:55;3.13;;;1.50;;
37971;SDS011;23794;48.234;8.344;2023-02-15T15:27:43;2.72;;;1.73;;
37971;SDS011;23794;48.234;8.344;2023-02-15T15:47:46;2.60;;;1.60;;
37971;SDS011;23794;48.234;8.344;2023-02-15T15:50:32;2.90;;;1.37;;
37971;SDS011;23794;48.234;8.344;2023-02-15T15:53:00;4.32;;;1.50;;
37971;SDS011;23794;48.234;8.344;2023-02-15T15:55:29;2.80;;;1.40;;
37971;SDS011;23794;48.234;8.344;2023-02-15T15:57:59;4.07;;;1.42;;
37971;SDS011;23794;48.234;8.344;2023-02-15T16:00:43;2.67;;;1.50;;
37971;SDS011;23794;48.234;8.344;2023-02-15T16:03:14;6.55;;;3.40;;
37971;SDS011;23794;48.234;8.344;2023-02-15T16:05:45;4.15;;;2.00;;
37971;SDS011;23794;48.234;8.344;2023-02-15T16:08:11;3.33;;;1.60;;
37971;SDS011;23794;48.234;8.344;2023-02-15T16:10:40;2.45;;;1.40;;
37971;SDS011;23794;48.234;8.344;2023-02-15T16:13:07;2.25;;;1.40;;
37971;SDS011;23794;48.234;8.344;2023-02-15T16:15:35;2.90;;;1.38;;
37971;SDS011;23794;48.234;8.344;2023-02-15T16:18:10;5.35;;;1.95;;
37971;SDS011;23794;48.234;8.344;2023-02-15T16:28:59;3.42;;;1.80;;
37971;SDS011;23794;48.234;8.344;2023-02-15T16:31:27;2.65;;;1.85;;
37971;SDS011;23794;48.234;8.344;2023-02-15T16:33:54;5.28;;;1.67;;
37971;SDS011;23794;48.234;8.344;2023-02-15T16:36:28;3.60;;;1.65;;
37971;SDS011;23794;48.234;8.344;2023-02-15T16:41:25;6.72;;;2.35;;
37971;SDS011;23794;48.234;8.344;2023-02-15T16:43:54;6.47;;;2.30;;
37971;SDS011;23794;48.234;8.344;2023-02-15T16:46:49;7.43;;;2.13;;
37971;SDS011;23794;48.234;8.344;2023-02-15T16:49:18;4.20;;;1.88;;
37971;SDS011;23794;48.234;8.344;2023-02-15T16:51:55;3.58;;;2.20;;
37971;SDS011;23794;48.234;8.344;2023-02-15T16:54:25;4.95;;;2.70;;
37971;SDS011;23794;48.234;8.344;2023-02-15T16:56:54;7.85;;;2.67;;
37971;SDS011;23794;48.234;8.344;2023-02-15T17:01:54;4.38;;;3.08;;
37971;SDS011;23794;48.234;8.344;2023-02-15T17:09:25;5.10;;;2.92;;
37971;SDS011;23794;48.234;8.344;2023-02-15T17:11:52;4.40;;;2.75;;
37971;SDS011;23794;48.234;8.344;2023-02-15T17:14:20;3.72;;;2.28;;
37971;SDS011;23794;48.234;8.344;2023-02-15T17:16:48;3.72;;;2.40;;
37971;SDS011;23794;48.234;8.344;2023-02-15T17:19:49;11.32;;;4.00;;
37971;SDS011;23794;48.234;8.344;2023-02-15T17:22:21;5.88;;;2.58;;
37971;SDS011;23794;48.234;8.344;2023-02-15T17:24:56;6.10;;;2.65;;
37971;SDS011;23794;48.234;8.344;2023-02-15T17:27:26;5.50;;;2.67;;
37971;SDS011;23794;48.234;8.344;2023-02-15T17:29:59;6.90;;;3.00;;
37971;SDS011;23794;48.234;8.344;2023-02-15T17:32:29;6.40;;;3.25;;
37971;SDS011;23794;48.234;8.344;2023-02-15T17:34:59;4.40;;;2.40;;
37971;SDS011;23794;48.234;8.344;2023-02-15T17:40:37;3.72;;;2.17;;
37971;SDS011;23794;48.234;8.344;2023-02-15T17:42:58;4.90;;;2.85;;
37971;SDS011;23794;48.234;8.344;2023-02-15T17:45:26;5.13;;;3.63;;
37971;SDS011;23794;48.234;8.344;2023-02-15T17:47:59;5.65;;;2.78;;
37971;SDS011;23794;48.234;8.344;2023-02-15T17:50:29;5.60;;;3.22;;
37971;SDS011;23794;48.234;8.344;2023-02-15T17:52:58;5.68;;;3.22;;
37971;SDS011;23794;48.234;8.344;2023-02-15T17:55:27;6.60;;;3.00;;
37971;SDS011;23794;48.234;8.344;2023-02-15T17:58:08;7.40;;;3.67;;
37971;SDS011;23794;48.234;8.344;2023-02-15T18:00:43;4.75;;;3.10;;
37971;SDS011;23794;48.234;8.344;2023-02-15T18:03:34;9.48;;;3.60;;
37971;SDS011;23794;48.234;8.344;2023-02-15T18:06:25;12.32;;;3.47;;
37971;SDS011;23794;48.234;8.344;2023-02-15T18:09:12;5.38;;;3.72;;
37971;SDS011;23794;48.234;8.344;2023-02-15T18:11:59;4.93;;;2.40;;
37971;SDS011;23794;48.234;8.344;2023-02-15T18:14:26;4.93;;;2.22;;
37971;SDS011;23794;48.234;8.344;2023-02-15T18:16:53;4.35;;;2.42;;
37971;SDS011;23794;48.234;8.344;2023-02-15T18:19:21;4.93;;;2.72;;
37971;SDS011;23794;48.234;8.344;2023-02-15T18:21:50;4.30;;;2.55;;
37971;SDS011;23794;48.234;8.344;2023-02-15T18:24:19;5.25;;;2.75;;
37971;SDS011;23794;48.234;8.344;2023-02-15T18:26:49;5.30;;;2.83;;
37971;SDS011;23794;48.234;8.344;2023-02-15T18:29:18;4.32;;;2.20;;
37971;SDS011;23794;48.234;8.344;2023-02-15T18:31:44;9.55;;;2.25;;
37971;SDS011;23794;48.234;8.344;2023-02-15T18:34:27;6.50;;;3.10;;
37971;SDS011;23794;48.234;8.344;2023-02-15T18:36:57;7.05;;;3.22;;
37971;SDS011;23794;48.234;8.344;2023-02-15T18:39:26;7.03;;;2.53;;
37971;SDS011;23794;48.234;8.344;2023-02-15T18:41:59;4.40;;;2.42;;
37971;SDS011;23794;48.234;8.344;2023-02-15T18:44:26;5.47;;;2.33;;
37971;SDS011;23794;48.234;8.344;2023-02-15T18:46:53;3.20;;;1.70;;